sensor_id;sensor_type;location;lat;lon;timestamp;P1;durP1;ratioP1;P2;durP2;ratioP2
40993;SDS011;26722;43.212;27.932;2023-04-02T00:09:02;2.83;;;0.80;;
40993;SDS011;26722;43.212;27.932;2023-04-02T00:11:46;1.38;;;1.02;;
40993;SDS011;26722;43.212;27.932;2023-04-02T00:14:15;2.72;;;1.05;;
40993;SDS011;26722;43.212;27.932;2023-04-02T00:16:46;1.73;;;1.10;;
40993;SDS011;26722;43.212;27.932;2023-04-02T00:19:12;1.17;;;0.98;;
40993;SDS011;26722;43.212;27.932;2023-04-02T00:21:43;0.95;;;0.90;;
40993;SDS011;26722;43.212;27.932;2023-04-02T00:24:14;1.42;;;1.08;;
40993;SDS011;26722;43.212;27.932;2023-04-02T00:26:43;2.20;;;1.30;;
40993;SDS011;26722;43.212;27.932;2023-04-02T00:29:11;1.95;;;1.15;;
40993;SDS011;26722;43.212;27.932;2023-04-02T00:31:40;2.85;;;1.50;;
40993;SDS011;26722;43.212;27.932;2023-04-02T00:34:11;7.82;;;1.08;;
40993;SDS011;26722;43.212;27.932;2023-04-02T00:36:43;1.48;;;1.38;;
40993;SDS011;26722;43.212;27.932;2023-04-02T00:39:29;2.35;;;1.15;;
40993;SDS011;26722;43.212;27.932;2023-04-02T00:42:03;1.60;;;1.10;;
40993;SDS011;26722;43.212;27.932;2023-04-02T00:44:29;3.17;;;1.00;;
40993;SDS011;26722;43.212;27.932;2023-04-02T00:47:05;1.13;;;1.02;;
40993;SDS011;26722;43.212;27.932;2023-04-02T00:49:37;1.45;;;1.00;;
40993;SDS011;26722;43.212;27.932;2023-04-02T00:52:08;1.35;;;0.90;;
40993;SDS011;26722;43.212;27.932;2023-04-02T00:54:50;2.10;;;1.05;;
40993;SDS011;26722;43.212;27.932;2023-04-02T00:57:21;7.13;;;1.42;;
40993;SDS011;26722;43.212;27.932;2023-04-02T00:59:51;1.67;;;1.20;;
40993;SDS011;26722;43.212;27.932;2023-04-02T01:02:43;1.23;;;0.90;;
40993;SDS011;26722;43.212;27.932;2023-04-02T01:06:15;1.75;;;1.23;;
40993;SDS011;26722;43.212;27.932;2023-04-02T01:14:17;1.40;;;1.23;;
40993;SDS011;26722;43.212;27.932;2023-04-02T01:25:06;4.20;;;1.90;;
40993;SDS011;26722;43.212;27.932;2023-04-02T01:27:47;2.42;;;1.80;;
40993;SDS011;26722;43.212;27.932;2023-04-02T01:30:17;4.43;;;2.10;;
40993;SDS011;26722;43.212;27.932;2023-04-02T01:32:43;4.55;;;2.03;;
40993;SDS011;26722;43.212;27.932;2023-04-02T01:35:09;3.85;;;2.10;;
40993;SDS011;26722;43.212;27.932;2023-04-02T01:37:37;4.00;;;1.95;;
40993;SDS011;26722;43.212;27.932;2023-04-02T01:40:16;2.97;;;2.20;;
40993;SDS011;26722;43.212;27.932;2023-04-02T01:45:37;3.08;;;1.98;;
40993;SDS011;26722;43.212;27.932;2023-04-02T01:48:22;3.05;;;2.20;;
40993;SDS011;26722;43.212;27.932;2023-04-02T01:50:51;2.53;;;1.77;;
40993;SDS011;26722;43.212;27.932;2023-04-02T01:53:20;4.55;;;2.03;;
40993;SDS011;26722;43.212;27.932;2023-04-02T01:55:50;3.78;;;1.70;;
40993;SDS011;26722;43.212;27.932;2023-04-02T01:58:19;2.65;;;1.60;;
40993;SDS011;26722;43.212;27.932;2023-04-02T02:03:23;3.00;;;1.95;;
40993;SDS011;26722;43.212;27.932;2023-04-02T02:05:49;2.30;;;1.77;;
40993;SDS011;26722;43.212;27.932;2023-04-02T02:11:14;2.38;;;1.95;;
40993;SDS011;26722;43.212;27.932;2023-04-02T02:13:46;3.08;;;1.70;;
40993;SDS011;26722;43.212;27.932;2023-04-02T02:16:17;2.47;;;1.85;;
40993;SDS011;26722;43.212;27.932;2023-04-02T02:18:53;4.28;;;1.67;;
40993;SDS011;26722;43.212;27.932;2023-04-02T02:22:04;4.43;;;1.60;;
40993;SDS011;26722;43.212;27.932;2023-04-02T02:24:22;3.03;;;1.65;;
40993;SDS011;26722;43.212;27.932;2023-04-02T02:27:02;1.75;;;1.63;;
40993;SDS011;26722;43.212;27.932;2023-04-02T02:29:41;2.65;;;1.98;;
40993;SDS011;26722;43.212;27.932;2023-04-02T02:32:08;5.90;;;2.00;;
40993;SDS011;26722;43.212;27.932;2023-04-02T02:34:38;2.78;;;2.13;;
40993;SDS011;26722;43.212;27.932;2023-04-02T02:37:11;4.03;;;2.13;;
40993;SDS011;26722;43.212;27.932;2023-04-02T02:39:42;4.78;;;2.30;;
40993;SDS011;26722;43.212;27.932;2023-04-02T02:42:13;3.90;;;2.33;;
40993;SDS011;26722;43.212;27.932;2023-04-02T02:44:43;3.25;;;2.08;;
40993;SDS011;26722;43.212;27.932;2023-04-02T02:49:59;4.25;;;2.28;;
40993;SDS011;26722;43.212;27.932;2023-04-02T02:52:31;4.68;;;2.13;;
40993;SDS011;26722;43.212;27.932;2023-04-02T02:58:03;3.25;;;1.88;;
40993;SDS011;26722;43.212;27.932;2023-04-02T03:00:32;3.33;;;2.20;;
40993;SDS011;26722;43.212;27.932;2023-04-02T03:02:59;3.03;;;2.08;;
40993;SDS011;26722;43.212;27.932;2023-04-02T03:05:30;4.05;;;2.15;;
40993;SDS011;26722;43.212;27.932;2023-04-02T03:07:56;3.58;;;2.50;;
40993;SDS011;26722;43.212;27.932;2023-04-02T03:10:31;4.10;;;2.42;;
40993;SDS011;26722;43.212;27.932;2023-04-02T03:21:32;4.15;;;2.42;;
40993;SDS011;26722;43.212;27.932;2023-04-02T03:24:37;4.97;;;3.15;;
40993;SDS011;26722;43.212;27.932;2023-04-02T03:30:20;7.13;;;4.25;;
40993;SDS011;26722;43.212;27.932;2023-04-02T03:33:13;6.13;;;3.80;;
40993;SDS011;26722;43.212;27.932;2023-04-02T03:38:33;7.72;;;3.83;;
40993;SDS011;26722;43.212;27.932;2023-04-02T03:43:35;6.07;;;3.83;;
40993;SDS011;26722;43.212;27.932;2023-04-02T03:48:49;4.78;;;3.20;;
40993;SDS011;26722;43.212;27.932;2023-04-02T03:51:20;5.32;;;3.40;;
40993;SDS011;26722;43.212;27.932;2023-04-02T03:53:51;6.28;;;3.65;;
40993;SDS011;26722;43.212;27.932;2023-04-02T03:56:24;5.70;;;3.80;;
40993;SDS011;26722;43.212;27.932;2023-04-02T04:01:54;9.10;;;3.40;;
40993;SDS011;26722;43.212;27.932;2023-04-02T04:04:24;6.78;;;3.38;;
40993;SDS011;26722;43.212;27.932;2023-04-02T04:06:52;4.95;;;3.20;;
40993;SDS011;26722;43.212;27.932;2023-04-02T04:18:15;6.80;;;3.80;;
40993;SDS011;26722;43.212;27.932;2023-04-02T04:20:23;5.10;;;3.58;;
40993;SDS011;26722;43.212;27.932;2023-04-02T04:22:52;5.07;;;3.83;;
40993;SDS011;26722;43.212;27.932;2023-04-02T04:30:59;8.27;;;5.75;;
40993;SDS011;26722;43.212;27.932;2023-04-02T04:33:48;12.25;;;5.93;;
40993;SDS011;26722;43.212;27.932;2023-04-02T04:36:23;12.25;;;6.80;;
40993;SDS011;26722;43.212;27.932;2023-04-02T04:38:52;12.02;;;6.75;;
40993;SDS011;26722;43.212;27.932;2023-04-02T04:41:25;12.85;;;7.15;;
40993;SDS011;26722;43.212;27.932;2023-04-02T04:44:11;14.32;;;7.53;;
40993;SDS011;26722;43.212;27.932;2023-04-02T04:49:29;14.77;;;7.40;;
40993;SDS011;26722;43.212;27.932;2023-04-02T04:52:21;16.75;;;8.60;;
40993;SDS011;26722;43.212;27.932;2023-04-02T04:54:50;13.80;;;7.35;;
40993;SDS011;26722;43.212;27.932;2023-04-02T04:57:21;13.07;;;7.95;;
40993;SDS011;26722;43.212;27.932;2023-04-02T05:00:18;15.10;;;7.88;;
40993;SDS011;26722;43.212;27.932;2023-04-02T05:03:02;15.88;;;7.32;;
40993;SDS011;26722;43.212;27.932;2023-04-02T05:05:47;13.35;;;6.45;;
40993;SDS011;26722;43.212;27.932;2023-04-02T05:08:14;10.32;;;5.80;;
40993;SDS011;26722;43.212;27.932;2023-04-02T05:10:48;8.90;;;4.80;;
40993;SDS011;26722;43.212;27.932;2023-04-02T05:13:39;7.68;;;4.57;;
40993;SDS011;26722;43.212;27.932;2023-04-02T05:16:20;5.60;;;3.63;;
40993;SDS011;26722;43.212;27.932;2023-04-02T05:18:55;8.07;;;3.97;;
40993;SDS011;26722;43.212;27.932;2023-04-02T05:21:33;5.00;;;3.33;;
40993;SDS011;26722;43.212;27.932;2023-04-02T05:26:53;4.20;;;2.70;;
40993;SDS011;26722;43.212;27.932;2023-04-02T05:29:28;4.43;;;2.75;;
40993;SDS011;26722;43.212;27.932;2023-04-02T05:32:05;3.75;;;2.65;;
40993;SDS011;26722;43.212;27.932;2023-04-02T05:34:38;12.85;;;3.63;;
40993;SDS011;26722;43.212;27.932;2023-04-02T05:37:12;4.95;;;3.40;;
40993;SDS011;26722;43.212;27.932;2023-04-02T05:39:43;5.32;;;2.60;;
40993;SDS011;26722;43.212;27.932;2023-04-02T05:42:13;4.45;;;2.45;;
40993;SDS011;26722;43.212;27.932;2023-04-02T05:44:53;7.43;;;3.17;;
40993;SDS011;26722;43.212;27.932;2023-04-02T05:47:28;6.50;;;3.00;;
40993;SDS011;26722;43.212;27.932;2023-04-02T05:52:51;7.55;;;3.65;;
40993;SDS011;26722;43.212;27.932;2023-04-02T05:55:49;7.68;;;4.93;;
40993;SDS011;26722;43.212;27.932;2023-04-02T05:58:19;7.88;;;4.45;;
40993;SDS011;26722;43.212;27.932;2023-04-02T06:03:56;5.47;;;3.90;;
40993;SDS011;26722;43.212;27.932;2023-04-02T06:09:16;3.85;;;2.60;;
40993;SDS011;26722;43.212;27.932;2023-04-02T06:12:15;6.55;;;2.78;;
40993;SDS011;26722;43.212;27.932;2023-04-02T06:14:42;4.57;;;2.60;;
40993;SDS011;26722;43.212;27.932;2023-04-02T06:17:15;4.63;;;2.67;;
40993;SDS011;26722;43.212;27.932;2023-04-02T06:19:42;5.43;;;2.88;;
40993;SDS011;26722;43.212;27.932;2023-04-02T06:22:20;6.28;;;2.67;;
40993;SDS011;26722;43.212;27.932;2023-04-02T06:25:04;5.72;;;3.03;;
40993;SDS011;26722;43.212;27.932;2023-04-02T06:27:42;4.95;;;2.47;;
40993;SDS011;26722;43.212;27.932;2023-04-02T06:30:27;3.85;;;2.17;;
40993;SDS011;26722;43.212;27.932;2023-04-02T06:32:56;5.03;;;2.28;;
40993;SDS011;26722;43.212;27.932;2023-04-02T06:35:22;7.82;;;2.58;;
40993;SDS011;26722;43.212;27.932;2023-04-02T06:37:49;5.65;;;2.45;;
40993;SDS011;26722;43.212;27.932;2023-04-02T06:40:31;6.22;;;2.60;;
40993;SDS011;26722;43.212;27.932;2023-04-02T06:43:05;5.60;;;2.83;;
40993;SDS011;26722;43.212;27.932;2023-04-02T06:45:37;6.57;;;2.65;;
40993;SDS011;26722;43.212;27.932;2023-04-02T06:48:11;6.07;;;2.85;;
40993;SDS011;26722;43.212;27.932;2023-04-02T06:50:47;3.15;;;2.45;;
40993;SDS011;26722;43.212;27.932;2023-04-02T06:53:28;5.03;;;2.42;;
40993;SDS011;26722;43.212;27.932;2023-04-02T06:58:42;3.47;;;2.20;;
40993;SDS011;26722;43.212;27.932;2023-04-02T07:01:07;4.47;;;2.38;;
40993;SDS011;26722;43.212;27.932;2023-04-02T07:03:36;5.47;;;2.78;;
40993;SDS011;26722;43.212;27.932;2023-04-02T07:06:01;4.85;;;2.55;;
40993;SDS011;26722;43.212;27.932;2023-04-02T07:08:27;4.88;;;1.88;;
40993;SDS011;26722;43.212;27.932;2023-04-02T07:10:53;3.28;;;1.60;;
40993;SDS011;26722;43.212;27.932;2023-04-02T07:13:20;4.50;;;1.50;;
40993;SDS011;26722;43.212;27.932;2023-04-02T07:15:49;3.70;;;1.20;;
40993;SDS011;26722;43.212;27.932;2023-04-02T07:18:27;5.55;;;1.48;;
40993;SDS011;26722;43.212;27.932;2023-04-02T07:20:54;3.45;;;1.27;;
40993;SDS011;26722;43.212;27.932;2023-04-02T07:23:20;1.95;;;1.20;;
40993;SDS011;26722;43.212;27.932;2023-04-02T07:25:49;3.75;;;1.30;;
40993;SDS011;26722;43.212;27.932;2023-04-02T07:28:16;5.53;;;1.40;;
40993;SDS011;26722;43.212;27.932;2023-04-02T07:30:42;2.30;;;1.50;;
40993;SDS011;26722;43.212;27.932;2023-04-02T07:33:11;4.95;;;1.23;;
40993;SDS011;26722;43.212;27.932;2023-04-02T07:35:41;2.30;;;1.35;;
40993;SDS011;26722;43.212;27.932;2023-04-02T07:38:07;5.68;;;1.55;;
40993;SDS011;26722;43.212;27.932;2023-04-02T07:40:33;6.03;;;1.83;;
40993;SDS011;26722;43.212;27.932;2023-04-02T07:42:59;3.30;;;1.40;;
40993;SDS011;26722;43.212;27.932;2023-04-02T07:45:25;3.60;;;1.45;;
40993;SDS011;26722;43.212;27.932;2023-04-02T07:47:50;5.10;;;1.75;;
40993;SDS011;26722;43.212;27.932;2023-04-02T07:50:16;4.90;;;1.20;;
40993;SDS011;26722;43.212;27.932;2023-04-02T07:52:42;1.85;;;1.15;;
40993;SDS011;26722;43.212;27.932;2023-04-02T07:55:13;2.15;;;1.25;;
40993;SDS011;26722;43.212;27.932;2023-04-02T07:57:45;2.75;;;1.90;;
40993;SDS011;26722;43.212;27.932;2023-04-02T08:00:15;4.47;;;2.08;;
40993;SDS011;26722;43.212;27.932;2023-04-02T08:02:41;6.28;;;2.15;;
40993;SDS011;26722;43.212;27.932;2023-04-02T08:05:07;5.07;;;2.03;;
40993;SDS011;26722;43.212;27.932;2023-04-02T08:07:33;4.65;;;2.10;;
40993;SDS011;26722;43.212;27.932;2023-04-02T08:09:59;2.45;;;1.65;;
40993;SDS011;26722;43.212;27.932;2023-04-02T08:12:25;4.93;;;1.95;;
40993;SDS011;26722;43.212;27.932;2023-04-02T08:14:51;4.82;;;2.03;;
40993;SDS011;26722;43.212;27.932;2023-04-02T08:17:16;3.67;;;2.05;;
40993;SDS011;26722;43.212;27.932;2023-04-02T08:19:42;3.70;;;2.10;;
40993;SDS011;26722;43.212;27.932;2023-04-02T08:22:08;2.40;;;1.40;;
40993;SDS011;26722;43.212;27.932;2023-04-02T08:24:35;4.68;;;1.85;;
40993;SDS011;26722;43.212;27.932;2023-04-02T08:27:00;3.17;;;1.65;;
40993;SDS011;26722;43.212;27.932;2023-04-02T08:29:26;3.60;;;2.22;;
40993;SDS011;26722;43.212;27.932;2023-04-02T08:31:56;3.78;;;1.90;;
40993;SDS011;26722;43.212;27.932;2023-04-02T08:34:22;2.75;;;1.35;;
40993;SDS011;26722;43.212;27.932;2023-04-02T08:36:48;3.50;;;1.48;;
40993;SDS011;26722;43.212;27.932;2023-04-02T08:39:13;3.80;;;1.70;;
40993;SDS011;26722;43.212;27.932;2023-04-02T08:44:28;5.60;;;1.65;;
40993;SDS011;26722;43.212;27.932;2023-04-02T08:47:07;3.53;;;1.52;;
40993;SDS011;26722;43.212;27.932;2023-04-02T08:49:36;4.82;;;1.60;;
40993;SDS011;26722;43.212;27.932;2023-04-02T08:52:11;7.63;;;1.70;;
40993;SDS011;26722;43.212;27.932;2023-04-02T08:54:51;4.18;;;1.60;;
40993;SDS011;26722;43.212;27.932;2023-04-02T08:57:29;4.05;;;1.48;;
40993;SDS011;26722;43.212;27.932;2023-04-02T09:05:15;2.67;;;1.63;;
40993;SDS011;26722;43.212;27.932;2023-04-02T09:07:47;2.22;;;1.58;;
40993;SDS011;26722;43.212;27.932;2023-04-02T09:10:15;2.83;;;1.50;;
40993;SDS011;26722;43.212;27.932;2023-04-02T09:12:42;3.10;;;1.85;;
40993;SDS011;26722;43.212;27.932;2023-04-02T09:18:12;5.13;;;1.50;;
40993;SDS011;26722;43.212;27.932;2023-04-02T09:20:39;2.30;;;1.30;;
40993;SDS011;26722;43.212;27.932;2023-04-02T09:23:04;2.05;;;1.50;;
40993;SDS011;26722;43.212;27.932;2023-04-02T09:25:42;3.15;;;1.52;;
40993;SDS011;26722;43.212;27.932;2023-04-02T09:28:10;3.35;;;1.70;;
40993;SDS011;26722;43.212;27.932;2023-04-02T09:33:51;3.97;;;1.95;;
40993;SDS011;26722;43.212;27.932;2023-04-02T09:36:27;4.07;;;2.38;;
40993;SDS011;26722;43.212;27.932;2023-04-02T09:39:04;5.07;;;2.15;;
40993;SDS011;26722;43.212;27.932;2023-04-02T09:41:31;3.75;;;2.00;;
40993;SDS011;26722;43.212;27.932;2023-04-02T09:46:49;2.75;;;1.90;;
40993;SDS011;26722;43.212;27.932;2023-04-02T09:49:23;4.88;;;2.17;;
40993;SDS011;26722;43.212;27.932;2023-04-02T09:55:04;4.75;;;1.50;;
40993;SDS011;26722;43.212;27.932;2023-04-02T09:57:38;2.60;;;1.52;;
40993;SDS011;26722;43.212;27.932;2023-04-02T10:00:23;10.07;;;1.70;;
40993;SDS011;26722;43.212;27.932;2023-04-02T10:05:26;2.72;;;1.48;;
40993;SDS011;26722;43.212;27.932;2023-04-02T10:07:53;3.45;;;1.10;;
40993;SDS011;26722;43.212;27.932;2023-04-02T10:10:40;2.42;;;1.10;;
40993;SDS011;26722;43.212;27.932;2023-04-02T10:16:11;2.60;;;1.58;;
40993;SDS011;26722;43.212;27.932;2023-04-02T10:21:26;4.78;;;1.20;;
40993;SDS011;26722;43.212;27.932;2023-04-02T10:23:55;5.97;;;1.30;;
40993;SDS011;26722;43.212;27.932;2023-04-02T10:26:27;2.22;;;1.30;;
40993;SDS011;26722;43.212;27.932;2023-04-02T10:35:02;2.08;;;1.10;;
40993;SDS011;26722;43.212;27.932;2023-04-02T10:52:19;2.35;;;1.45;;
40993;SDS011;26722;43.212;27.932;2023-04-02T10:59:55;3.40;;;1.42;;
40993;SDS011;26722;43.212;27.932;2023-04-02T11:05:21;3.22;;;1.42;;
40993;SDS011;26722;43.212;27.932;2023-04-02T11:11:18;2.35;;;1.40;;
40993;SDS011;26722;43.212;27.932;2023-04-02T11:13:52;2.40;;;1.30;;
40993;SDS011;26722;43.212;27.932;2023-04-02T11:16:37;3.08;;;1.17;;
40993;SDS011;26722;43.212;27.932;2023-04-02T11:19:19;2.17;;;1.13;;
40993;SDS011;26722;43.212;27.932;2023-04-02T11:24:24;1.95;;;1.00;;
40993;SDS011;26722;43.212;27.932;2023-04-02T11:27:02;3.08;;;0.90;;
40993;SDS011;26722;43.212;27.932;2023-04-02T11:29:31;2.15;;;1.13;;
40993;SDS011;26722;43.212;27.932;2023-04-02T11:32:12;1.67;;;1.02;;
40993;SDS011;26722;43.212;27.932;2023-04-02T11:37:29;5.10;;;0.90;;
40993;SDS011;26722;43.212;27.932;2023-04-02T11:40:05;2.95;;;1.10;;
40993;SDS011;26722;43.212;27.932;2023-04-02T11:42:32;3.10;;;1.50;;
40993;SDS011;26722;43.212;27.932;2023-04-02T11:50:35;5.35;;;1.23;;
40993;SDS011;26722;43.212;27.932;2023-04-02T12:06:22;1.05;;;0.75;;
40993;SDS011;26722;43.212;27.932;2023-04-02T12:09:16;2.75;;;1.05;;
40993;SDS011;26722;43.212;27.932;2023-04-02T12:11:48;0.75;;;0.70;;
40993;SDS011;26722;43.212;27.932;2023-04-02T12:14:30;1.55;;;0.77;;
40993;SDS011;26722;43.212;27.932;2023-04-02T12:19:28;1.95;;;1.10;;
40993;SDS011;26722;43.212;27.932;2023-04-02T12:21:55;1.65;;;1.00;;
40993;SDS011;26722;43.212;27.932;2023-04-02T12:24:23;2.63;;;0.90;;
40993;SDS011;26722;43.212;27.932;2023-04-02T12:29:55;2.33;;;1.30;;
40993;SDS011;26722;43.212;27.932;2023-04-02T12:32:35;2.55;;;1.20;;
40993;SDS011;26722;43.212;27.932;2023-04-02T12:35:01;2.42;;;1.10;;
40993;SDS011;26722;43.212;27.932;2023-04-02T12:37:28;2.75;;;1.15;;
40993;SDS011;26722;43.212;27.932;2023-04-02T12:39:56;3.17;;;0.82;;
40993;SDS011;26722;43.212;27.932;2023-04-02T12:42:29;2.55;;;0.95;;
40993;SDS011;26722;43.212;27.932;2023-04-02T12:45:00;3.88;;;1.10;;
40993;SDS011;26722;43.212;27.932;2023-04-02T12:47:26;2.60;;;1.20;;
40993;SDS011;26722;43.212;27.932;2023-04-02T12:49:53;1.50;;;1.00;;
40993;SDS011;26722;43.212;27.932;2023-04-02T12:52:21;2.45;;;1.25;;
40993;SDS011;26722;43.212;27.932;2023-04-02T12:54:53;3.67;;;1.20;;
40993;SDS011;26722;43.212;27.932;2023-04-02T12:59:54;2.88;;;1.20;;
40993;SDS011;26722;43.212;27.932;2023-04-02T13:02:21;4.13;;;1.25;;
40993;SDS011;26722;43.212;27.932;2023-04-02T13:04:53;3.08;;;1.35;;
40993;SDS011;26722;43.212;27.932;2023-04-02T13:07:21;1.88;;;1.10;;
40993;SDS011;26722;43.212;27.932;2023-04-02T13:09:52;2.42;;;1.30;;
40993;SDS011;26722;43.212;27.932;2023-04-02T13:14:54;3.33;;;1.40;;
40993;SDS011;26722;43.212;27.932;2023-04-02T13:17:38;2.15;;;1.42;;
40993;SDS011;26722;43.212;27.932;2023-04-02T13:22:52;3.25;;;1.10;;
40993;SDS011;26722;43.212;27.932;2023-04-02T13:25:18;2.90;;;0.90;;
40993;SDS011;26722;43.212;27.932;2023-04-02T13:27:52;2.03;;;1.10;;
40993;SDS011;26722;43.212;27.932;2023-04-02T13:30:22;1.77;;;1.00;;
40993;SDS011;26722;43.212;27.932;2023-04-02T13:32:50;2.20;;;1.30;;
40993;SDS011;26722;43.212;27.932;2023-04-02T13:35:16;1.95;;;1.10;;
40993;SDS011;26722;43.212;27.932;2023-04-02T13:37:41;2.00;;;1.10;;
40993;SDS011;26722;43.212;27.932;2023-04-02T13:40:11;1.48;;;0.82;;
40993;SDS011;26722;43.212;27.932;2023-04-02T13:42:41;3.95;;;1.17;;
40993;SDS011;26722;43.212;27.932;2023-04-02T13:45:17;1.65;;;1.10;;
40993;SDS011;26722;43.212;27.932;2023-04-02T13:47:47;2.95;;;1.17;;
40993;SDS011;26722;43.212;27.932;2023-04-02T13:50:17;1.88;;;1.10;;
40993;SDS011;26722;43.212;27.932;2023-04-02T13:52:44;1.90;;;0.90;;
40993;SDS011;26722;43.212;27.932;2023-04-02T13:55:10;3.75;;;1.00;;
40993;SDS011;26722;43.212;27.932;2023-04-02T13:57:37;2.10;;;1.00;;
40993;SDS011;26722;43.212;27.932;2023-04-02T14:00:03;1.73;;;1.10;;
40993;SDS011;26722;43.212;27.932;2023-04-02T14:02:29;1.83;;;1.10;;
40993;SDS011;26722;43.212;27.932;2023-04-02T14:07:36;2.13;;;1.20;;
40993;SDS011;26722;43.212;27.932;2023-04-02T14:10:24;2.08;;;1.30;;
40993;SDS011;26722;43.212;27.932;2023-04-02T14:13:15;3.45;;;1.30;;
40993;SDS011;26722;43.212;27.932;2023-04-02T14:16:12;1.30;;;1.00;;
40993;SDS011;26722;43.212;27.932;2023-04-02T14:18:51;1.85;;;1.25;;
40993;SDS011;26722;43.212;27.932;2023-04-02T14:21:59;1.95;;;1.30;;
40993;SDS011;26722;43.212;27.932;2023-04-02T14:27:24;2.65;;;1.42;;
40993;SDS011;26722;43.212;27.932;2023-04-02T14:30:06;6.20;;;1.40;;
40993;SDS011;26722;43.212;27.932;2023-04-02T14:35:48;3.40;;;1.13;;
40993;SDS011;26722;43.212;27.932;2023-04-02T14:40:35;1.58;;;1.10;;
40993;SDS011;26722;43.212;27.932;2023-04-02T14:43:16;1.85;;;1.00;;
40993;SDS011;26722;43.212;27.932;2023-04-02T15:02:06;4.88;;;1.70;;
40993;SDS011;26722;43.212;27.932;2023-04-02T15:04:45;2.65;;;1.40;;
40993;SDS011;26722;43.212;27.932;2023-04-02T15:07:23;2.15;;;1.30;;
40993;SDS011;26722;43.212;27.932;2023-04-02T15:12:32;4.57;;;1.55;;
40993;SDS011;26722;43.212;27.932;2023-04-02T15:15:03;2.00;;;1.30;;
40993;SDS011;26722;43.212;27.932;2023-04-02T15:17:38;2.20;;;1.52;;
40993;SDS011;26722;43.212;27.932;2023-04-02T15:20:14;5.70;;;1.80;;
40993;SDS011;26722;43.212;27.932;2023-04-02T15:25:48;3.33;;;1.42;;
40993;SDS011;26722;43.212;27.932;2023-04-02T15:28:26;3.90;;;1.70;;
40993;SDS011;26722;43.212;27.932;2023-04-02T15:31:00;3.67;;;1.65;;
40993;SDS011;26722;43.212;27.932;2023-04-02T15:38:39;3.88;;;1.90;;
40993;SDS011;26722;43.212;27.932;2023-04-02T15:41:24;3.03;;;1.80;;
40993;SDS011;26722;43.212;27.932;2023-04-02T15:55:24;5.15;;;1.90;;
40993;SDS011;26722;43.212;27.932;2023-04-02T16:06:05;3.00;;;1.70;;
40993;SDS011;26722;43.212;27.932;2023-04-02T16:11:30;2.92;;;1.70;;
40993;SDS011;26722;43.212;27.932;2023-04-02T16:16:51;4.13;;;2.38;;
40993;SDS011;26722;43.212;27.932;2023-04-02T16:22:04;6.97;;;2.90;;
40993;SDS011;26722;43.212;27.932;2023-04-02T16:24:36;6.00;;;3.22;;
40993;SDS011;26722;43.212;27.932;2023-04-02T16:29:57;9.95;;;3.60;;
40993;SDS011;26722;43.212;27.932;2023-04-02T16:49:33;3.35;;;1.35;;
40993;SDS011;26722;43.212;27.932;2023-04-02T17:00:32;2.13;;;1.40;;
40993;SDS011;26722;43.212;27.932;2023-04-02T17:03:13;4.03;;;1.60;;
40993;SDS011;26722;43.212;27.932;2023-04-02T17:09:16;4.85;;;1.80;;
40993;SDS011;26722;43.212;27.932;2023-04-02T17:14:38;4.00;;;1.83;;
40993;SDS011;26722;43.212;27.932;2023-04-02T17:17:08;6.57;;;2.40;;
40993;SDS011;26722;43.212;27.932;2023-04-02T17:19:38;4.10;;;2.05;;
40993;SDS011;26722;43.212;27.932;2023-04-02T17:22:08;7.30;;;2.28;;
40993;SDS011;26722;43.212;27.932;2023-04-02T17:24:42;12.00;;;3.80;;
40993;SDS011;26722;43.212;27.932;2023-04-02T17:27:18;6.10;;;2.45;;
40993;SDS011;26722;43.212;27.932;2023-04-02T17:29:50;5.97;;;1.88;;
40993;SDS011;26722;43.212;27.932;2023-04-02T17:32:23;3.65;;;1.70;;
40993;SDS011;26722;43.212;27.932;2023-04-02T17:34:51;3.97;;;2.17;;
40993;SDS011;26722;43.212;27.932;2023-04-02T17:39:55;5.07;;;1.60;;
40993;SDS011;26722;43.212;27.932;2023-04-02T17:42:39;3.28;;;1.70;;
40993;SDS011;26722;43.212;27.932;2023-04-02T17:45:32;3.38;;;1.70;;
40993;SDS011;26722;43.212;27.932;2023-04-02T17:54:00;6.22;;;2.35;;
40993;SDS011;26722;43.212;27.932;2023-04-02T18:07:39;3.42;;;2.10;;
40993;SDS011;26722;43.212;27.932;2023-04-02T18:26:56;4.20;;;2.00;;
40993;SDS011;26722;43.212;27.932;2023-04-02T18:35:06;6.90;;;2.78;;
40993;SDS011;26722;43.212;27.932;2023-04-02T18:37:44;3.53;;;2.35;;
40993;SDS011;26722;43.212;27.932;2023-04-02T18:49:19;4.00;;;2.20;;
40993;SDS011;26722;43.212;27.932;2023-04-02T18:51:49;3.65;;;2.22;;
40993;SDS011;26722;43.212;27.932;2023-04-02T18:54:21;5.93;;;2.85;;
40993;SDS011;26722;43.212;27.932;2023-04-02T18:56:51;5.47;;;2.97;;
40993;SDS011;26722;43.212;27.932;2023-04-02T18:59:20;7.30;;;2.58;;
40993;SDS011;26722;43.212;27.932;2023-04-02T19:01:56;4.38;;;2.70;;
40993;SDS011;26722;43.212;27.932;2023-04-02T19:04:25;3.38;;;2.40;;
40993;SDS011;26722;43.212;27.932;2023-04-02T19:07:02;4.95;;;2.72;;
40993;SDS011;26722;43.212;27.932;2023-04-02T19:09:35;5.80;;;3.13;;
40993;SDS011;26722;43.212;27.932;2023-04-02T19:12:15;8.43;;;3.50;;
40993;SDS011;26722;43.212;27.932;2023-04-02T19:14:46;7.22;;;3.17;;
40993;SDS011;26722;43.212;27.932;2023-04-02T19:23:02;8.68;;;3.60;;
40993;SDS011;26722;43.212;27.932;2023-04-02T19:28:36;11.55;;;3.40;;
40993;SDS011;26722;43.212;27.932;2023-04-02T19:31:15;11.32;;;3.70;;
40993;SDS011;26722;43.212;27.932;2023-04-02T19:37:01;7.35;;;3.17;;
40993;SDS011;26722;43.212;27.932;2023-04-02T19:42:43;5.13;;;3.28;;
40993;SDS011;26722;43.212;27.932;2023-04-02T19:45:23;10.80;;;2.83;;
40993;SDS011;26722;43.212;27.932;2023-04-02T19:47:53;5.78;;;3.00;;
40993;SDS011;26722;43.212;27.932;2023-04-02T19:50:20;8.48;;;3.55;;
40993;SDS011;26722;43.212;27.932;2023-04-02T19:52:46;8.55;;;3.78;;
40993;SDS011;26722;43.212;27.932;2023-04-02T19:55:12;8.77;;;4.00;;
40993;SDS011;26722;43.212;27.932;2023-04-02T19:57:37;10.25;;;4.03;;
40993;SDS011;26722;43.212;27.932;2023-04-02T20:00:03;7.25;;;3.60;;
40993;SDS011;26722;43.212;27.932;2023-04-02T20:02:30;7.57;;;3.67;;
40993;SDS011;26722;43.212;27.932;2023-04-02T20:04:56;7.90;;;4.07;;
40993;SDS011;26722;43.212;27.932;2023-04-02T20:07:21;6.97;;;3.53;;
40993;SDS011;26722;43.212;27.932;2023-04-02T20:09:47;8.25;;;4.18;;
40993;SDS011;26722;43.212;27.932;2023-04-02T20:12:12;8.65;;;4.07;;
40993;SDS011;26722;43.212;27.932;2023-04-02T20:14:38;9.10;;;4.13;;
40993;SDS011;26722;43.212;27.932;2023-04-02T20:17:03;6.75;;;3.50;;
40993;SDS011;26722;43.212;27.932;2023-04-02T20:19:29;7.30;;;3.17;;
40993;SDS011;26722;43.212;27.932;2023-04-02T20:21:54;8.18;;;3.35;;
40993;SDS011;26722;43.212;27.932;2023-04-02T20:24:20;7.68;;;4.25;;
40993;SDS011;26722;43.212;27.932;2023-04-02T20:26:46;10.07;;;4.10;;
40993;SDS011;26722;43.212;27.932;2023-04-02T20:29:11;10.75;;;4.68;;
40993;SDS011;26722;43.212;27.932;2023-04-02T20:31:37;13.88;;;4.85;;
40993;SDS011;26722;43.212;27.932;2023-04-02T20:34:02;18.13;;;6.85;;
40993;SDS011;26722;43.212;27.932;2023-04-02T20:36:29;14.63;;;6.30;;
40993;SDS011;26722;43.212;27.932;2023-04-02T20:38:55;12.02;;;6.60;;
40993;SDS011;26722;43.212;27.932;2023-04-02T20:41:21;9.80;;;3.80;;
40993;SDS011;26722;43.212;27.932;2023-04-02T20:43:47;7.85;;;3.80;;
40993;SDS011;26722;43.212;27.932;2023-04-02T20:46:13;10.15;;;4.72;;
40993;SDS011;26722;43.212;27.932;2023-04-02T20:48:39;7.35;;;4.32;;
40993;SDS011;26722;43.212;27.932;2023-04-02T20:51:06;13.75;;;5.32;;
40993;SDS011;26722;43.212;27.932;2023-04-02T20:53:34;10.07;;;5.20;;
40993;SDS011;26722;43.212;27.932;2023-04-02T20:56:05;8.00;;;4.07;;
40993;SDS011;26722;43.212;27.932;2023-04-02T20:58:31;4.95;;;3.03;;